M I D A S
Marine Information and Data Acquisition System
Tripno 1182 of the Zeeleeuw from 2006-12-21 07:38:37 to 2006-12-21 14:01:52
Back to CruiseResearch ActivitiesStationsMapUnderway DataData graphs

EquipmentUnitsComment
TimeDGPSUTC
LatitudeDGPSDM.mWGS84
LongitudeDGPSDM.mWGS84
HeadingGyrodeg 
SOGDGPSknotsSpeed over ground
COGDGPSdegCourse over ground
DepthEcho soundermeters200 kHz
Missing or incorrect values are displayed as -999
Navigation data collected by the RV Zeeleeuw from 2006-12-21 07:37:35 to 2006-12-21 14:10:29
                                                                                    Next 1000 lines
Time Latitude Longitude Heading SOG COG Depth
2006-12-21 07:37:45 51°13.599 2°56.093 112.5 0.5 293 5.9
2006-12-21 07:37:50 51°13.599 2°56.091 112.4 0.7 298 6
2006-12-21 07:37:55 51°13.6 2°56.09 112.3 0.8 295 6
2006-12-21 07:37:59 51°13.6 2°56.088 112 1 296 6.1
2006-12-21 07:38:03 51°13.601 2°56.086 111.7 1.3 297 6.1
2006-12-21 07:38:10 51°13.602 2°56.081 111.5 1.6 292 6.5
2006-12-21 07:38:14 51°13.603 2°56.078 111 2.1 292 -999
2006-12-21 07:38:21 51°13.605 2°56.071 110.5 2.4 291 -999
2006-12-21 07:38:26 51°13.606 2°56.065 110.4 2.7 289 -999
2006-12-21 07:38:32 51°13.607 2°56.057 110.3 3 290 -999
2006-12-21 07:38:37 51°13.609 2°56.051 110.6 3.2 289 -999
2006-12-21 07:38:43 51°13.611 2°56.042 111 3.4 290 -999
2006-12-21 07:38:48 51°13.612 2°56.035 111.7 3.6 290 -999
2006-12-21 07:38:53 51°13.614 2°56.027 112.4 3.8 291 -999
2006-12-21 07:38:58 51°13.616 2°56.019 112.9 3.9 291 -999
2006-12-21 07:39:03 51°13.618 2°56.01 113.3 4.1 291 -999
2006-12-21 07:39:07 51°13.62 2°56.003 113.6 4.2 291 -999
2006-12-21 07:39:13 51°13.622 2°55.993 113.9 4.3 291 -999
2006-12-21 07:39:18 51°13.624 2°55.983 114.3 4.4 291 -999
2006-12-21 07:39:23 51°13.627 2°55.974 115 4.5 292 -999
2006-12-21 07:39:27 51°13.629 2°55.967 115.8 4.6 292 -999
2006-12-21 07:39:33 51°13.632 2°55.955 116.8 4.7 294 -999
2006-12-21 07:39:38 51°13.634 2°55.946 117.9 4.8 294 -999
2006-12-21 07:39:43 51°13.637 2°55.936 119 4.9 296 -999
2006-12-21 07:39:47 51°13.64 2°55.928 119.8 5.1 297 -999
2006-12-21 07:39:53 51°13.644 2°55.916 120.8 5.2 297 -999
2006-12-21 07:39:58 51°13.648 2°55.905 121.8 5.4 299 -999
2006-12-21 07:40:03 51°13.652 2°55.895 122.6 5.5 299 -999
2006-12-21 07:40:07 51°13.655 2°55.886 123.4 5.7 301 -999
2006-12-21 07:40:13 51°13.66 2°55.873 124.3 5.8 301 -999
2006-12-21 07:40:18 51°13.664 2°55.862 125 5.8 302 -999
2006-12-21 07:40:23 51°13.668 2°55.851 125.9 5.8 302 -999
2006-12-21 07:40:27 51°13.672 2°55.843 126.6 5.6 304 -999
2006-12-21 07:40:33 51°13.677 2°55.831 127.1 5.4 304 -999
2006-12-21 07:40:38 51°13.681 2°55.821 127.5 5.4 305 -999
2006-12-21 07:40:43 51°13.686 2°55.811 127.7 5.5 305 4.8
2006-12-21 07:40:47 51°13.689 2°55.804 127.8 5.5 306 -999
2006-12-21 07:40:53 51°13.694 2°55.792 127.8 5.2 305 -999
2006-12-21 07:40:58 51°13.698 2°55.783 127.8 5 306 -999
2006-12-21 07:41:03 51°13.702 2°55.774 127.5 4.9 305 -999
2006-12-21 07:41:07 51°13.705 2°55.767 127 4.8 305 -999
2006-12-21 07:41:13 51°13.709 2°55.758 126.6 4.6 305 4.7
2006-12-21 07:41:18 51°13.713 2°55.75 125.7 4.4 304 -999
2006-12-21 07:41:22 51°13.715 2°55.743 125.1 4.2 304 4.8
2006-12-21 07:41:27 51°13.719 2°55.736 124.1 4 303 -999
2006-12-21 07:41:33 51°13.722 2°55.728 123.3 3.7 302 -999
2006-12-21 07:41:38 51°13.725 2°55.722 122.7 3.4 303 4.7
2006-12-21 07:41:42 51°13.726 2°55.717 121.8 3 302 4.6
2006-12-21 07:41:46 51°13.728 2°55.713 120.5 2.6 301 9.7
2006-12-21 07:41:51 51°13.729 2°55.709 119.3 2.1 303 9.8
2006-12-21 07:41:57 51°13.731 2°55.706 116.8 1.6 303 9.9
2006-12-21 07:42:02 51°13.731 2°55.704 113.9 1.1 310 9.9
2006-12-21 07:42:06 51°13.732 2°55.703 110.9 0.6 320 5
2006-12-21 07:42:11 51°13.733 2°55.703 107.2 0.4 16 -999
2006-12-21 07:42:17 51°13.733 2°55.705 102.6 0.7 57 9.9
2006-12-21 07:42:22 51°13.734 2°55.707 97.2 1 65 9.8
2006-12-21 07:42:26 51°13.734 2°55.71 91.3 1.4 66 9.8
2006-12-21 07:42:30 51°13.735 2°55.713 84.7 1.4 63 10
2006-12-21 07:42:35 51°13.736 2°55.716 78.1 1.4 53 -999
2006-12-21 07:42:41 51°13.737 2°55.719 73.3 1.2 50 -999
2006-12-21 07:42:46 51°13.738 2°55.72 69.9 0.9 38 9.4
2006-12-21 07:42:51 51°13.739 2°55.72 65.9 0.6 15 -999
2006-12-21 07:42:55 51°13.74 2°55.719 63.2 0.5 328 -999
2006-12-21 07:43:02 51°13.74 2°55.718 60.3 0.6 288 9.8
2006-12-21 07:43:05 51°13.74 2°55.716 58 0.8 269 9.7
2006-12-21 07:43:10 51°13.74 2°55.714 55.8 1.1 256 9.5
2006-12-21 07:43:15 51°13.739 2°55.711 53.6 1.4 250 9.8
2006-12-21 07:43:21 51°13.738 2°55.707 51.4 1.4 246 -999
2006-12-21 07:43:26 51°13.737 2°55.705 48.9 1.3 247 -999
2006-12-21 07:43:31 51°13.736 2°55.702 47.2 1.1 249 -999
2006-12-21 07:43:37 51°13.736 2°55.7 45.6 0.9 256 -999
2006-12-21 07:43:42 51°13.736 2°55.699 42.9 0.5 291 9.7
2006-12-21 07:43:47 51°13.737 2°55.698 40.6 0.7 349 -999
2006-12-21 07:43:52 51°13.739 2°55.698 34.7 1.1 -999 -999
2006-12-21 07:43:58 51°13.742 2°55.699 28.4 1.6 3 5
2006-12-21 07:44:02 51°13.744 2°55.698 22.6 2.1 359 4.9
2006-12-21 07:44:06 51°13.746 2°55.698 16.6 2.5 355 4.9
2006-12-21 07:44:11 51°13.75 2°55.697 10.1 2.9 349 9.6
2006-12-21 07:44:16 51°13.755 2°55.695 2.1 3.7 346 4.6
2006-12-21 07:44:21 51°13.761 2°55.692 355 4.3 340 9.2
2006-12-21 07:44:26 51°13.767 2°55.688 348.1 4.8 338 9.6
2006-12-21 07:44:31 51°13.774 2°55.683 344.7 5.4 337 -999
2006-12-21 07:44:36 51°13.781 2°55.678 342.5 5.9 336 9.8
2006-12-21 07:44:42 51°13.791 2°55.671 341.6 6.3 335 8.9
2006-12-21 07:44:47 51°13.799 2°55.665 340.4 6.6 335 8.9
2006-12-21 07:44:51 51°13.806 2°55.659 339.6 6.9 336 9.1
2006-12-21 07:44:55 51°13.813 2°55.654 339.4 7.2 336 9.2
2006-12-21 07:45:01 51°13.824 2°55.646 339.3 7.4 336 9.6
2006-12-21 07:45:06 51°13.833 2°55.639 339.1 7.6 335 -999
2006-12-21 07:45:11 51°13.843 2°55.632 338.9 7.8 335 -999
2006-12-21 07:45:17 51°13.855 2°55.623 338.8 7.9 335 8.7
2006-12-21 07:45:22 51°13.865 2°55.615 338.9 8 335 8.8
2006-12-21 07:45:26 51°13.873 2°55.608 338.6 8.2 334 9
2006-12-21 07:45:31 51°13.884 2°55.601 338.3 8.3 334 9
2006-12-21 07:45:35 51°13.892 2°55.594 338.2 8.4 333 9
2006-12-21 07:45:41 51°13.905 2°55.584 338.1 8.5 335 -999
2006-12-21 07:45:46 51°13.916 2°55.575 338.3 8.6 334 9.9
2006-12-21 07:45:52 51°13.929 2°55.566 338.3 8.7 335 -999
2006-12-21 07:45:57 51°13.94 2°55.557 338.9 8.7 335 -999
2006-12-21 07:46:02 51°13.951 2°55.55 339.7 8.8 336 9.8
2006-12-21 07:46:07 51°13.962 2°55.542 340.1 8.9 336 9.7
2006-12-21 07:46:13 51°13.975 2°55.532 340.1 8.9 336 -999
2006-12-21 07:46:17 51°13.984 2°55.526 340.6 8.9 337 -999
2006-12-21 07:46:22 51°13.995 2°55.518 341 9 337 -999
2006-12-21 07:46:27 51°14.007 2°55.51 341 8.9 336 -999
2006-12-21 07:46:32 51°14.018 2°55.502 340.6 8.7 336 -999
2006-12-21 07:46:37 51°14.029 2°55.495 340.4 8.6 336 -999
2006-12-21 07:46:42 51°14.039 2°55.487 340.3 8.5 336 -999
2006-12-21 07:46:47 51°14.05 2°55.479 340.1 8.4 335 -999
2006-12-21 07:46:52 51°14.06 2°55.471 339.6 8.3 335 -999
2006-12-21 07:46:57 51°14.07 2°55.464 339.1 8.2 335 -999
2006-12-21 07:47:02 51°14.081 2°55.455 338.9 8.3 335 -999
2006-12-21 07:47:07 51°14.091 2°55.447 338.8 8.5 334 -999
2006-12-21 07:47:13 51°14.105 2°55.437 338.8 8.7 334 -999
2006-12-21 07:47:17 51°14.113 2°55.43 338.9 8.8 335 -999
2006-12-21 07:47:22 51°14.125 2°55.422 338.9 9 334 -999
2006-12-21 07:47:27 51°14.136 2°55.413 338.6 9.1 334 -999
2006-12-21 07:47:32 51°14.147 2°55.404 337.9 9.2 332 -999
2006-12-21 07:47:38 51°14.161 2°55.392 336.6 9.2 331 -999
2006-12-21 07:47:42 51°14.17 2°55.383 335.2 9.3 330 -999
2006-12-21 07:47:47 51°14.181 2°55.372 333.8 9.4 328 -999
2006-12-21 07:47:53 51°14.194 2°55.359 332.5 9.5 328 -999
2006-12-21 07:47:58 51°14.205 2°55.347 331.6 9.6 326 -999
2006-12-21 07:48:02 51°14.214 2°55.337 330.5 9.6 325 -999
2006-12-21 07:48:07 51°14.224 2°55.325 329.4 9.7 324 -999
2006-12-21 07:48:13 51°14.237 2°55.309 328 9.7 322 -999
2006-12-21 07:48:18 51°14.248 2°55.295 326.6 9.7 321 -999
2006-12-21 07:48:23 51°14.258 2°55.281 324.5 9.7 319 -999
2006-12-21 07:48:27 51°14.265 2°55.269 322.7 9.7 316 -999
2006-12-21 07:48:32 51°14.275 2°55.254 320 9.7 314 -999
2006-12-21 07:48:37 51°14.284 2°55.238 318.4 9.7 312 -999
2006-12-21 07:48:43 51°14.294 2°55.218 316.3 9.7 310 -999
2006-12-21 07:48:47 51°14.301 2°55.205 314.3 9.7 309 -999
2006-12-21 07:48:53 51°14.311 2°55.184 313.4 9.8 309 -999
2006-12-21 07:48:58 51°14.32 2°55.167 312.9 9.9 309 9.6
2006-12-21 07:49:03 51°14.328 2°55.15 312.7 10.1 309 9.7
2006-12-21 07:49:07 51°14.336 2°55.136 312.7 10.3 309 9.6
2006-12-21 07:49:11 51°14.343 2°55.121 312.8 10.5 309 9.5
2006-12-21 07:49:17 51°14.355 2°55.099 313.5 10.8 310 9.3
2006-12-21 07:49:22 51°14.365 2°55.08 314.1 11.1 309 8.9
2006-12-21 07:49:27 51°14.375 2°55.06 314.2 11.4 309 9.2
2006-12-21 07:49:31 51°14.383 2°55.044 314.1 11.6 309 9.3
2006-12-21 07:49:35 51°14.391 2°55.028 313.8 11.8 308 9.2
2006-12-21 07:49:40 51°14.4 2°55.007 313.5 11.9 306 9.1
2006-12-21 07:49:45 51°14.41 2°54.984 312 12.1 303 9.1
2006-12-21 07:49:50 51°14.419 2°54.961 310 12.3 302 9.3
2006-12-21 07:49:54 51°14.426 2°54.942 308.5 12.4 301 9.3
2006-12-21 07:49:59 51°14.434 2°54.918 307.2 12.5 300 9.3
2006-12-21 07:50:03 51°14.441 2°54.898 306.2 12.6 299 9.3
2006-12-21 07:50:09 51°14.451 2°54.869 305.4 12.7 299 9.3
2006-12-21 07:50:13 51°14.458 2°54.849 305.3 12.8 301 9.2
2006-12-21 07:50:19 51°14.47 2°54.821 307.5 12.8 304 9.2
2006-12-21 07:50:23 51°14.479 2°54.803 311.1 12.8 308 9.2
2006-12-21 07:50:30 51°14.496 2°54.774 315.8 12.8 313 9.1
2006-12-21 07:50:35 51°14.509 2°54.756 320.9 12.8 318 8.8
2006-12-21 07:50:39 51°14.52 2°54.741 325 12.7 320 8.6
2006-12-21 07:50:45 51°14.537 2°54.721 328 12.7 322 8.6
2006-12-21 07:50:50 51°14.551 2°54.704 330.3 12.8 324 8.5
2006-12-21 07:50:55 51°14.566 2°54.687 332 12.8 325 8.4
2006-12-21 07:50:59 51°14.577 2°54.674 332.4 12.8 325 8.3
2006-12-21 07:51:05 51°14.595 2°54.656 333.8 12.8 327 8.3
2006-12-21 07:51:09 51°14.607 2°54.643 334.8 12.8 326 8.3
2006-12-21 07:51:13 51°14.619 2°54.63 334.8 12.9 326 8.3
2006-12-21 07:51:18 51°14.633 2°54.614 334.7 13 325 8.3
2006-12-21 07:51:24 51°14.651 2°54.594 334.3 13.1 325 8.2
2006-12-21 07:51:29 51°14.666 2°54.578 334 13.1 325 8.3
2006-12-21 07:51:35 51°14.684 2°54.558 333.5 13.1 325 8.3
2006-12-21 07:51:38 51°14.693 2°54.548 333.2 13.2 325 8.2
2006-12-21 07:51:43 51°14.708 2°54.531 333 13.2 325 8.1
2006-12-21 07:51:49 51°14.726 2°54.511 332.9 13.2 325 8.2
2006-12-21 07:51:54 51°14.741 2°54.493 332.6 13.3 324 8.1
2006-12-21 07:51:59 51°14.756 2°54.477 332.4 13.3 325 8.1
2006-12-21 07:52:03 51°14.768 2°54.463 332.4 13.3 325 8.1
2006-12-21 07:52:10 51°14.789 2°54.439 332.4 13.3 325 8
2006-12-21 07:52:15 51°14.804 2°54.422 332.6 13.3 325 8
2006-12-21 07:52:19 51°14.817 2°54.409 333 13.3 326 8
2006-12-21 07:52:23 51°14.829 2°54.396 333.6 13.3 327 7.9
2006-12-21 07:52:29 51°14.847 2°54.377 334.4 13.3 327 7.9
2006-12-21 07:52:34 51°14.863 2°54.361 334.8 13.3 328 7.8
2006-12-21 07:52:39 51°14.879 2°54.347 336.2 13.2 330 8.2
2006-12-21 07:52:44 51°14.895 2°54.332 337.7 13.2 331 7.9
2006-12-21 07:52:49 51°14.911 2°54.319 338.8 13.2 332 7.7
2006-12-21 07:52:54 51°14.927 2°54.305 339.9 13.1 333 7.5
2006-12-21 07:52:59 51°14.943 2°54.293 341.1 13 334 7.4
2006-12-21 07:53:04 51°14.959 2°54.28 341.7 12.9 334 5.4
2006-12-21 07:53:09 51°14.975 2°54.268 342.1 12.8 334 5.5
2006-12-21 07:53:14 51°14.991 2°54.254 341.8 12.8 332 5.5
2006-12-21 07:53:19 51°15.006 2°54.24 339.6 12.8 329 7.3
2006-12-21 07:53:24 51°15.021 2°54.224 337.4 12.8 326 7.2
2006-12-21 07:53:29 51°15.035 2°54.207 335.2 12.8 325 7.3
2006-12-21 07:53:33 51°15.046 2°54.194 333.4 12.8 324 7.3
2006-12-21 07:53:39 51°15.063 2°54.173 332.1 12.9 322 7.4
2006-12-21 07:53:44 51°15.078 2°54.156 331.2 12.9 323 -999
2006-12-21 07:53:49 51°15.092 2°54.139 330.9 13 323 7.5
2006-12-21 07:53:54 51°15.107 2°54.122 331 13 324 7.5
2006-12-21 07:53:59 51°15.121 2°54.105 331.8 13 325 7.6
2006-12-21 07:54:03 51°15.133 2°54.092 333.1 13.1 326 7.8
2006-12-21 07:54:09 51°15.152 2°54.073 334.4 13.1 327 7.6
2006-12-21 07:54:14 51°15.167 2°54.058 335.3 13.1 328 7.7
2006-12-21 07:54:19 51°15.183 2°54.043 336.6 13.1 329 7.6
2006-12-21 07:54:23 51°15.195 2°54.031 337.3 13.1 329 7.7
2006-12-21 07:54:29 51°15.213 2°54.013 337.5 13.1 329 7.9
2006-12-21 07:54:34 51°15.229 2°53.997 337.5 13.1 327 7.8
2006-12-21 07:54:39 51°15.244 2°53.981 337.1 13.2 327 7.9
2006-12-21 07:54:44 51°15.259 2°53.965 336.4 13.2 326 8
2006-12-21 07:54:49 51°15.275 2°53.948 335.3 13.3 325 8.1
2006-12-21 07:54:53 51°15.287 2°53.935 334.8 13.3 325 8.1
2006-12-21 07:54:59 51°15.305 2°53.914 334.2 13.4 325 8.2
2006-12-21 07:55:03 51°15.317 2°53.901 334.3 13.4 325 8.4
2006-12-21 07:55:09 51°15.336 2°53.881 334.7 13.5 326 8.3
2006-12-21 07:55:14 51°15.351 2°53.865 335.8 13.5 328 8.4
2006-12-21 07:55:19 51°15.367 2°53.85 337.4 13.5 329 8.5
2006-12-21 07:55:24 51°15.384 2°53.835 338.6 13.4 330 8.5
2006-12-21 07:55:29 51°15.4 2°53.821 340.2 13.4 332 8.5
2006-12-21 07:55:34 51°15.417 2°53.807 341.2 13.4 332 8.7
2006-12-21 07:55:39 51°15.433 2°53.794 341.8 13.5 333 8.7
2006-12-21 07:55:43 51°15.446 2°53.783 342.3 13.5 333 8.7
2006-12-21 07:55:49 51°15.466 2°53.766 342.5 13.5 332 8.7
2006-12-21 07:55:53 51°15.479 2°53.754 341.6 13.6 331 8.9
2006-12-21 07:55:58 51°15.496 2°53.739 340.5 13.6 330 8.9
2006-12-21 07:56:04 51°15.515 2°53.721 339.4 13.6 329 8.9
2006-12-21 07:56:09 51°15.531 2°53.705 338.6 13.6 328 9
2006-12-21 07:56:13 51°15.544 2°53.692 337.7 13.7 327 9
2006-12-21 07:56:18 51°15.56 2°53.675 337.1 13.7 327 9.1
2006-12-21 07:56:23 51°15.576 2°53.659 336.9 13.7 327 9.2
2006-12-21 07:56:29 51°15.595 2°53.64 337.1 13.6 328 9.1
2006-12-21 07:56:34 51°15.611 2°53.624 337.7 13.7 328 9.2
2006-12-21 07:56:38 51°15.624 2°53.611 338.5 13.7 330 9.2
2006-12-21 07:56:43 51°15.641 2°53.596 339.5 13.7 330 9.3
2006-12-21 07:56:49 51°15.66 2°53.578 339.7 13.7 330 9.4
2006-12-21 07:56:54 51°15.677 2°53.563 339.8 13.7 330 9.4
2006-12-21 07:56:59 51°15.693 2°53.548 339.7 13.7 331 9.4
2006-12-21 07:57:04 51°15.71 2°53.533 339.8 13.8 330 9.6
2006-12-21 07:57:09 51°15.727 2°53.518 339.7 13.8 330 9.7
2006-12-21 07:57:14 51°15.743 2°53.503 339.4 13.8 330 9.6
2006-12-21 07:57:19 51°15.76 2°53.487 338.9 13.8 329 9.6
2006-12-21 07:57:24 51°15.776 2°53.471 338.3 13.8 329 9.7
2006-12-21 07:57:29 51°15.792 2°53.455 338.2 13.9 328 9.8
2006-12-21 07:57:33 51°15.805 2°53.442 338 13.9 328 9.9
2006-12-21 07:57:39 51°15.825 2°53.423 337.9 13.8 328 9.8
2006-12-21 07:57:44 51°15.841 2°53.407 337.8 13.8 328 9.9
2006-12-21 07:57:49 51°15.858 2°53.391 337.8 13.8 328 10
2006-12-21 07:57:54 51°15.874 2°53.375 337.9 13.8 329 10
2006-12-21 07:57:59 51°15.89 2°53.359 338.2 13.8 328 10.1
2006-12-21 07:58:04 51°15.907 2°53.343 338.3 13.8 328 10.1
2006-12-21 07:58:09 51°15.923 2°53.326 338.3 13.8 328 10.2
2006-12-21 07:58:14 51°15.939 2°53.31 338.5 13.8 328 10.3
2006-12-21 07:58:18 51°15.952 2°53.297 338.5 13.8 328 10.3
2006-12-21 07:58:24 51°15.972 2°53.278 338.8 13.8 329 10.4
2006-12-21 07:58:29 51°15.988 2°53.262 339 13.8 329 10.3
2006-12-21 07:58:34 51°16.004 2°53.246 339.1 13.8 328 10.4
2006-12-21 07:58:39 51°16.02 2°53.23 339.1 13.8 328 10.4
2006-12-21 07:58:44 51°16.037 2°53.214 338.9 13.8 328 10.5
2006-12-21 07:58:49 51°16.053 2°53.198 338.9 13.8 327 10.5
2006-12-21 07:58:54 51°16.069 2°53.181 338.4 13.8 327 10.5
2006-12-21 07:58:59 51°16.085 2°53.165 338.3 13.8 328 10.6
2006-12-21 07:59:04 51°16.101 2°53.15 338.8 13.7 329 10.6
2006-12-21 07:59:08 51°16.115 2°53.137 339.5 13.7 330 10.6
2006-12-21 07:59:14 51°16.134 2°53.119 339.6 13.7 330 10.6
2006-12-21 07:59:19 51°16.151 2°53.104 339.8 13.7 330 10.7
2006-12-21 07:59:24 51°16.167 2°53.089 339.6 13.6 330 10.7
2006-12-21 07:59:29 51°16.183 2°53.073 339.4 13.7 329 10.7
2006-12-21 07:59:34 51°16.2 2°53.058 338.7 13.7 329 10.8
2006-12-21 07:59:39 51°16.216 2°53.042 338.2 13.7 328 10.7
2006-12-21 07:59:44 51°16.232 2°53.026 338.2 13.7 328 10.8
2006-12-21 07:59:49 51°16.248 2°53.01 338.1 13.7 329 10.9
2006-12-21 07:59:54 51°16.265 2°52.995 338.5 13.6 330 10.8
2006-12-21 07:59:59 51°16.281 2°52.981 339.5 13.6 332 10.8
2006-12-21 08:00:04 51°16.298 2°52.967 340.5 13.7 332 10.9
2006-12-21 08:00:09 51°16.315 2°52.953 340.9 13.6 333 10.7
2006-12-21 08:00:14 51°16.332 2°52.94 341.3 13.6 333 10.8
2006-12-21 08:00:19 51°16.348 2°52.926 341.2 13.6 333 10.9
2006-12-21 08:00:24 51°16.365 2°52.911 340.9 13.6 332 10.7
2006-12-21 08:00:29 51°16.382 2°52.897 340.4 13.6 332 10.8
2006-12-21 08:00:34 51°16.398 2°52.883 340.4 13.6 332 10.8
2006-12-21 08:00:38 51°16.412 2°52.872 340.2 13.6 332 10.7
2006-12-21 08:00:42 51°16.425 2°52.861 340.2 13.6 332 10.8
2006-12-21 08:00:49 51°16.448 2°52.841 340.3 13.6 333 10.7
2006-12-21 08:00:54 51°16.465 2°52.827 340.4 13.6 333 10.7
2006-12-21 08:00:59 51°16.482 2°52.814 340.6 13.5 333 10.6
2006-12-21 08:01:04 51°16.499 2°52.8 340.8 13.5 333 10.6
2006-12-21 08:01:09 51°16.515 2°52.787 340.8 13.5 333 10.5
2006-12-21 08:01:14 51°16.532 2°52.773 340.7 13.5 332 10.4
2006-12-21 08:01:19 51°16.548 2°52.759 340.4 13.5 333 10.4
2006-12-21 08:01:24 51°16.565 2°52.745 340.2 13.5 332 10.5
2006-12-21 08:01:29 51°16.582 2°52.731 340 13.5 333 10.2
2006-12-21 08:01:34 51°16.598 2°52.718 340.2 13.4 333 10.3
2006-12-21 08:01:39 51°16.615 2°52.705 341.1 13.4 335 10.2
2006-12-21 08:01:44 51°16.632 2°52.692 341.9 13.4 335 10
2006-12-21 08:01:49 51°16.649 2°52.68 342.5 13.4 336 10
2006-12-21 08:01:54 51°16.666 2°52.669 343.7 13.3 337 9.8
2006-12-21 08:01:59 51°16.683 2°52.658 344.8 13.3 338 9.6
2006-12-21 08:02:04 51°16.7 2°52.648 346 13.2 340 9.5
2006-12-21 08:02:09 51°16.717 2°52.637 346.9 13.2 339 9.2
2006-12-21 08:02:14 51°16.734 2°52.628 347.1 13.1 341 8.8
2006-12-21 08:02:19 51°16.751 2°52.618 347.9 12.9 340 8.6
2006-12-21 08:02:24 51°16.768 2°52.608 348 12.8 340 8.7
2006-12-21 08:02:29 51°16.785 2°52.598 347.9 12.8 340 8.8
2006-12-21 08:02:34 51°16.801 2°52.589 347.8 12.8 340 8.6
2006-12-21 08:02:38 51°16.815 2°52.582 348.1 12.9 342 8.5
2006-12-21 08:02:44 51°16.835 2°52.571 349.3 12.9 342 8.5
2006-12-21 08:02:49 51°16.852 2°52.562 349.7 12.9 343 8.5
2006-12-21 08:02:54 51°16.869 2°52.554 350.4 12.8 344 8.6
2006-12-21 08:02:58 51°16.883 2°52.548 351.2 12.8 345 8.7
2006-12-21 08:03:04 51°16.904 2°52.541 353.7 12.8 348 8.8
2006-12-21 08:03:09 51°16.921 2°52.535 354.9 12.8 348 8.7
2006-12-21 08:03:14 51°16.939 2°52.531 356.4 12.9 350 8.7
2006-12-21 08:03:19 51°16.957 2°52.526 357.6 12.9 351 8.7
2006-12-21 08:03:24 51°16.974 2°52.522 358.2 12.8 351 8.5
2006-12-21 08:03:29 51°16.992 2°52.518 358.7 12.8 351 8.5
2006-12-21 08:03:34 51°17.009 2°52.514 359.1 12.7 352 8.5
2006-12-21 08:03:39 51°17.026 2°52.51 359.7 12.6 352 8.4
2006-12-21 08:03:44 51°17.044 2°52.506 359.9 12.6 352 8.4
2006-12-21 08:03:49 51°17.061 2°52.502 359.7 12.7 352 8.4
2006-12-21 08:03:54 51°17.079 2°52.499 0.2 12.7 353 8.5
2006-12-21 08:03:59 51°17.096 2°52.495 0.3 12.7 352 8.5
2006-12-21 08:04:04 51°17.114 2°52.492 0.5 12.7 353 8.5
2006-12-21 08:04:09 51°17.131 2°52.488 0.7 12.8 353 8.6
2006-12-21 08:04:13 51°17.145 2°52.486 0.8 12.8 353 8.8
2006-12-21 08:04:19 51°17.166 2°52.482 1 12.8 354 8.8
2006-12-21 08:04:24 51°17.184 2°52.479 1 12.8 353 8.8
2006-12-21 08:04:29 51°17.202 2°52.476 0.9 12.8 355 8.7
2006-12-21 08:04:34 51°17.219 2°52.473 2 12.8 354 8.8
2006-12-21 08:04:39 51°17.237 2°52.471 2.5 12.8 356 8.8
2006-12-21 08:04:44 51°17.255 2°52.469 3.2 12.8 355 8.8
2006-12-21 08:04:49 51°17.273 2°52.467 3.9 12.8 357 8.8
2006-12-21 08:04:54 51°17.291 2°52.465 4.5 12.8 357 9.1
2006-12-21 08:04:59 51°17.308 2°52.464 5 12.9 358 9
2006-12-21 08:05:04 51°17.326 2°52.463 5.5 12.9 357 9
2006-12-21 08:05:09 51°17.344 2°52.461 5.3 12.9 357 9.2
2006-12-21 08:05:14 51°17.362 2°52.459 4.8 12.9 355 9.1
2006-12-21 08:05:19 51°17.38 2°52.457 4.2 12.9 356 9.1
2006-12-21 08:05:25 51°17.401 2°52.454 3.8 12.9 355 9.1
2006-12-21 08:05:29 51°17.415 2°52.452 3.6 12.9 356 9.1
2006-12-21 08:05:34 51°17.433 2°52.451 3.9 12.9 356 9.2
2006-12-21 08:05:39 51°17.451 2°52.45 5 12.8 359 9
2006-12-21 08:05:44 51°17.469 2°52.45 6.7 12.8 359 9.1
2006-12-21 08:05:49 51°17.486 2°52.451 7.8 12.8 2 9.2
2006-12-21 08:05:54 51°17.504 2°52.451 9.3 12.8 2 9.1
2006-12-21 08:05:59 51°17.522 2°52.453 10 12.7 3 9.2
2006-12-21 08:06:04 51°17.539 2°52.455 10.8 12.7 3 9.3
2006-12-21 08:06:08 51°17.553 2°52.456 11.1 12.7 3 9.2
2006-12-21 08:06:14 51°17.575 2°52.457 11.1 12.7 3 9.3
2006-12-21 08:06:19 51°17.592 2°52.458 11 12.8 2 9.2
2006-12-21 08:06:24 51°17.61 2°52.46 10.6 12.8 2 9.2
2006-12-21 08:06:29 51°17.628 2°52.46 10.1 12.8 1 9.1
2006-12-21 08:06:34 51°17.645 2°52.461 9.6 12.8 1 9.3
2006-12-21 08:06:39 51°17.663 2°52.463 9.9 12.7 4 9.1
2006-12-21 08:06:44 51°17.68 2°52.465 10.9 12.7 4 9
2006-12-21 08:06:49 51°17.698 2°52.467 12.1 12.6 5 9.1
2006-12-21 08:06:54 51°17.715 2°52.47 13.1 12.7 6 9
2006-12-21 08:06:59 51°17.733 2°52.473 13.7 12.6 6 9.2
2006-12-21 08:07:04 51°17.75 2°52.476 14.5 12.7 7 9
2006-12-21 08:07:09 51°17.768 2°52.48 14.6 12.6 7 9.2
2006-12-21 08:07:14 51°17.785 2°52.483 14.9 12.6 7 9.3
2006-12-21 08:07:18 51°17.799 2°52.486 15 12.7 7 9.1
2006-12-21 08:07:24 51°17.82 2°52.489 14.8 12.7 6 9.1
2006-12-21 08:07:29 51°17.838 2°52.492 14.4 12.7 6 9.2
2006-12-21 08:07:34 51°17.855 2°52.495 13.8 12.7 5 9.2
2006-12-21 08:07:39 51°17.873 2°52.497 13.5 12.7 5 9.2
2006-12-21 08:07:42 51°17.883 2°52.498 13.1 12.7 5 9.3
2006-12-21 08:07:49 51°17.908 2°52.502 13.4 12.7 5 9.3
2006-12-21 08:07:54 51°17.925 2°52.505 13.6 12.7 5 9.4
2006-12-21 08:07:59 51°17.943 2°52.507 13.7 12.7 5 9.3
2006-12-21 08:08:04 51°17.96 2°52.51 13.7 12.7 6 9.5
2006-12-21 08:08:09 51°17.978 2°52.513 14.1 12.7 6 9.4
2006-12-21 08:08:14 51°17.995 2°52.516 14.4 12.7 7 9.4
2006-12-21 08:08:19 51°18.013 2°52.521 15.8 12.6 10 9.5
2006-12-21 08:08:24 51°18.03 2°52.526 17.6 12.7 10 9.5
2006-12-21 08:08:29 51°18.047 2°52.532 18.3 12.7 13 9.4
2006-12-21 08:08:34 51°18.064 2°52.539 19.8 12.6 14 9.6
2006-12-21 08:08:39 51°18.08 2°52.548 22.4 12.5 19 9.4
2006-12-21 08:08:44 51°18.097 2°52.558 25.9 12.5 21 9.6
2006-12-21 08:08:49 51°18.112 2°52.569 28.5 12.5 25 9.6
2006-12-21 08:08:54 51°18.128 2°52.581 30.8 12.5 25 9.6
2006-12-21 08:08:59 51°18.143 2°52.594 32.1 12.4 28 9.6
2006-12-21 08:09:04 51°18.158 2°52.608 34.5 12.3 31 9.7
2006-12-21 08:09:09 51°18.172 2°52.622 36.9 12.4 33 9.8
2006-12-21 08:09:14 51°18.186 2°52.638 38.5 12.4 35 9.9
2006-12-21 08:09:19 51°18.2 2°52.655 41.3 12.4 39 9.8
2006-12-21 08:09:24 51°18.213 2°52.673 44.2 12.4 40 9.8
2006-12-21 08:09:29 51°18.226 2°52.691 45.5 12.4 42 9.9
2006-12-21 08:09:34 51°18.238 2°52.71 46.9 12.3 44 9.9
2006-12-21 08:09:39 51°18.251 2°52.729 48.2 12.4 44 9.9
2006-12-21 08:09:44 51°18.263 2°52.748 48.4 12.3 45 9.8
2006-12-21 08:09:49 51°18.274 2°52.769 49.5 12.4 47 9.9
2006-12-21 08:09:54 51°18.285 2°52.79 51.8 12.5 50 9.9
2006-12-21 08:09:59 51°18.296 2°52.812 54 12.4 53 9.9
2006-12-21 08:10:04 51°18.306 2°52.834 56 12.4 54 9.9
2006-12-21 08:10:09 51°18.316 2°52.856 57.4 12.4 55 9.9
2006-12-21 08:10:14 51°18.325 2°52.879 58.2 12.4 56 10.1
2006-12-21 08:10:19 51°18.335 2°52.902 59 12.4 57 10
2006-12-21 08:10:24 51°18.344 2°52.925 60 12.4 59 10
2006-12-21 08:10:29 51°18.352 2°52.949 61.5 12.5 59 10.1
2006-12-21 08:10:34 51°18.361 2°52.973 62.1 12.5 60 10.1
2006-12-21 08:10:39 51°18.369 2°52.997 62.7 12.5 61 10.1
2006-12-21 08:10:44 51°18.378 2°53.021 63.1 12.4 61 10.1
2006-12-21 08:10:48 51°18.385 2°53.04 63.1 12.5 61 10.1
2006-12-21 08:10:54 51°18.395 2°53.069 63.7 12.5 60 10.1
2006-12-21 08:10:59 51°18.403 2°53.093 63.2 12.4 61 10.1
2006-12-21 08:11:04 51°18.412 2°53.117 63.4 12.5 61 10.1
2006-12-21 08:11:09 51°18.42 2°53.141 63.5 12.5 60 10.1
2006-12-21 08:11:13 51°18.427 2°53.16 63.1 12.5 61 10.1
2006-12-21 08:11:19 51°18.438 2°53.189 62.8 12.4 59 10
2006-12-21 08:11:24 51°18.447 2°53.213 62.3 12.5 59 10
2006-12-21 08:11:29 51°18.455 2°53.236 62.2 12.4 59 10.2
2006-12-21 08:11:34 51°18.464 2°53.259 62.2 12.3 59 10.2
2006-12-21 08:11:39 51°18.473 2°53.283 62.3 12.3 59 10.3
2006-12-21 08:11:44 51°18.482 2°53.306 62.2 12.3 59 10
2006-12-21 08:11:49 51°18.49 2°53.33 62 12.3 59 10.1
2006-12-21 08:11:54 51°18.5 2°53.353 61.7 12.4 58 10.2
2006-12-21 08:11:59 51°18.509 2°53.376 61.7 12.4 58 10.1
2006-12-21 08:12:04 51°18.518 2°53.399 61.3 12.4 57 10.2
2006-12-21 08:12:09 51°18.527 2°53.422 60.9 12.4 57 10.1
2006-12-21 08:12:14 51°18.536 2°53.445 60.9 12.3 58 10.2
2006-12-21 08:12:19 51°18.545 2°53.469 61 12.3 58 10.3
2006-12-21 08:12:24 51°18.554 2°53.492 61.6 12.3 58 10.3
2006-12-21 08:12:29 51°18.563 2°53.515 61.6 12.3 59 10.2
2006-12-21 08:12:34 51°18.572 2°53.539 62.2 12.4 59 10.3
2006-12-21 08:12:39 51°18.581 2°53.562 62.2 12.4 60 10.3
2006-12-21 08:12:44 51°18.589 2°53.586 62.5 12.4 59 10.3
2006-12-21 08:12:49 51°18.598 2°53.609 62.4 12.3 59 10.2
2006-12-21 08:12:54 51°18.607 2°53.632 62 12.4 58 10.3
2006-12-21 08:12:59 51°18.616 2°53.655 61.7 12.4 58 10.3
2006-12-21 08:13:04 51°18.626 2°53.679 61.6 12.3 58 10.3
2006-12-21 08:13:08 51°18.633 2°53.697 61.4 12.4 58 10.3
2006-12-21 08:13:14 51°18.643 2°53.725 61.4 12.4 59 10.3
2006-12-21 08:13:19 51°18.653 2°53.748 61.4 12.4 58 10.3
2006-12-21 08:13:24 51°18.661 2°53.772 61.9 12.4 60 10.3
2006-12-21 08:13:29 51°18.67 2°53.796 62.6 12.4 60 10.3
2006-12-21 08:13:34 51°18.679 2°53.819 63.1 12.4 60 10.3
2006-12-21 08:13:39 51°18.687 2°53.843 63.5 12.4 61 10.3
2006-12-21 08:13:44 51°18.696 2°53.867 63.9 12.4 60 10.3
2006-12-21 08:13:49 51°18.704 2°53.891 63.7 12.4 60 10.3
2006-12-21 08:13:54 51°18.713 2°53.915 63.7 12.4 60 10.3
2006-12-21 08:13:58 51°18.72 2°53.933 63.4 12.4 59 10.4
2006-12-21 08:14:04 51°18.73 2°53.961 63 12.3 59 10.4
2006-12-21 08:14:09 51°18.739 2°53.985 62.5 12.3 59 10.3
2006-12-21 08:14:14 51°18.748 2°54.008 62.5 12.3 59 10.3
2006-12-21 08:14:19 51°18.756 2°54.032 62.6 12.4 60 10.4
2006-12-21 08:14:24 51°18.765 2°54.056 63.1 12.3 61 10.3
2006-12-21 08:14:29 51°18.773 2°54.08 63.5 12.4 61 10.4
2006-12-21 08:14:34 51°18.782 2°54.103 63.7 12.3 61 10.3
2006-12-21 08:14:39 51°18.79 2°54.127 64 12.3 61 10.3
2006-12-21 08:14:42 51°18.795 2°54.142 64.4 12.3 62 10.4
2006-12-21 08:14:49 51°18.806 2°54.175 64.7 12.3 62 10.3
2006-12-21 08:14:54 51°18.815 2°54.199 65 12.3 62 10.3
2006-12-21 08:14:59 51°18.822 2°54.224 65 12.4 62 10.4
2006-12-21 08:15:04 51°18.831 2°54.248 65.1 12.4 62 10.3
2006-12-21 08:15:09 51°18.839 2°54.272 65.3 12.4 62 10.3
2006-12-21 08:15:14 51°18.846 2°54.297 65.8 12.4 63 10.5
2006-12-21 08:15:19 51°18.854 2°54.321 66 12.4 63 10.3
2006-12-21 08:15:24 51°18.862 2°54.345 65.8 12.4 62 10.4
2006-12-21 08:15:29 51°18.87 2°54.369 65.3 12.3 63 10.4
2006-12-21 08:15:34 51°18.878 2°54.393 65.4 12.3 61 10.4
2006-12-21 08:15:39 51°18.886 2°54.417 65.3 12.2 62 10.3
2006-12-21 08:15:44 51°18.894 2°54.441 65.3 12.3 61 10.3
2006-12-21 08:15:49 51°18.902 2°54.465 64.9 12.3 61 10.3
2006-12-21 08:15:54 51°18.91 2°54.489 64.8 12.3 62 10.4
2006-12-21 08:15:59 51°18.918 2°54.513 65 12.2 62 10.4
2006-12-21 08:16:04 51°18.926 2°54.537 65.6 12.2 63 10.4
2006-12-21 08:16:09 51°18.933 2°54.561 66.4 12.2 64 10.4
2006-12-21 08:16:14 51°18.941 2°54.585 66.5 12.2 63 10.4
2006-12-21 08:16:18 51°18.947 2°54.605 66.8 12.2 64 10.4
2006-12-21 08:16:24 51°18.956 2°54.634 67 12.2 64 10.4
2006-12-21 08:16:29 51°18.963 2°54.659 67.4 12.2 65 10.4
2006-12-21 08:16:34 51°18.971 2°54.683 67.6 12.2 64 10.3
2006-12-21 08:16:39 51°18.978 2°54.708 67.3 12.3 64 10.3
2006-12-21 08:16:44 51°18.985 2°54.732 67.1 12.2 64 10.3
2006-12-21 08:16:49 51°18.993 2°54.756 67.3 12.2 64 10.3
2006-12-21 08:16:54 51°19.001 2°54.78 66.9 12.2 63 10.4
2006-12-21 08:16:59 51°19.008 2°54.805 66.5 12.2 64 10.4
2006-12-21 08:17:04 51°19.016 2°54.829 66.6 12.2 63 10.4
2006-12-21 08:17:09 51°19.023 2°54.853 66.5 12.2 63 10.4
2006-12-21 08:17:14 51°19.031 2°54.877 66.5 12.2 63 10.4
2006-12-21 08:17:19 51°19.039 2°54.901 66.2 12.2 63 10.4
2006-12-21 08:17:24 51°19.047 2°54.925 65.9 12.2 61 10.4
2006-12-21 08:17:29 51°19.054 2°54.949 66 12.1 64 10.4
2006-12-21 08:17:34 51°19.062 2°54.973 66.3 12.2 63 10.4
2006-12-21 08:17:39 51°19.069 2°54.997 66.8 12.2 65 10.4
2006-12-21 08:17:44 51°19.077 2°55.022 67.8 12.2 64 10.4
2006-12-21 08:17:49 51°19.083 2°55.047 68.2 12.2 66 10.3
2006-12-21 08:17:54 51°19.091 2°55.071 68.8 12.2 65 10.3
2006-12-21 08:17:59 51°19.097 2°55.096 68.8 12.2 66 10.4
2006-12-21 08:18:04 51°19.105 2°55.12 68.4 12.2 64 10.4
2006-12-21 08:18:09 51°19.111 2°55.145 68.3 12.2 66 10.5
2006-12-21 08:18:14 51°19.119 2°55.169 68.2 12.2 65 10.5
2006-12-21 08:18:19 51°19.126 2°55.194 68.2 12.2 66 10.5
2006-12-21 08:18:24 51°19.133 2°55.218 68.4 12.2 65 10.5
2006-12-21 08:18:29 51°19.14 2°55.243 68.4 12.1 66 10.4
2006-12-21 08:18:34 51°19.147 2°55.268 68.7 12.2 66 10.4
2006-12-21 08:18:39 51°19.154 2°55.292 68.9 12.2 65 10.5
2006-12-21 08:18:44 51°19.161 2°55.317 68.4 12.2 65 10.4
2006-12-21 08:18:49 51°19.168 2°55.341 68.2 12.2 65 10.5
2006-12-21 08:18:54 51°19.175 2°55.365 68.2 12.1 65 10.3
2006-12-21 08:18:59 51°19.182 2°55.39 68.4 12.2 66 10.4
2006-12-21 08:19:04 51°19.189 2°55.414 68.6 12.2 66 10.3
2006-12-21 08:19:09 51°19.196 2°55.439 68.6 12.2 65 10.5
2006-12-21 08:19:14 51°19.203 2°55.464 68.6 12.2 66 10.3
2006-12-21 08:19:19 51°19.21 2°55.488 68.7 12.2 66 10.4
2006-12-21 08:19:24 51°19.217 2°55.513 68.9 12.3 66 10.5
2006-12-21 08:19:29 51°19.223 2°55.538 68.8 12.3 66 10.4
2006-12-21 08:19:34 51°19.231 2°55.562 68.3 12.2 65 10.4
2006-12-21 08:19:39 51°19.238 2°55.587 68.5 12.2 65 10.4
2006-12-21 08:19:44 51°19.245 2°55.611 68.5 12.2 66 10.4
2006-12-21 08:19:49 51°19.252 2°55.635 68.4 12.2 65 10.3
2006-12-21 08:19:54 51°19.259 2°55.66 68 12.2 65 10.2
2006-12-21 08:19:59 51°19.266 2°55.684 68.1 12.2 64 10.1
2006-12-21 08:20:04 51°19.273 2°55.709 68.2 12.2 65 10.1
2006-12-21 08:20:09 51°19.28 2°55.733 68.2 12.2 65 10.1
2006-12-21 08:20:14 51°19.287 2°55.758 68.6 12.1 66 10.1
2006-12-21 08:20:19 51°19.294 2°55.782 68.6 12.1 64 10.1
2006-12-21 08:20:24 51°19.301 2°55.807 68.6 12.1 66 10.1
2006-12-21 08:20:29 51°19.308 2°55.831 68.9 12.2 65 10.1
2006-12-21 08:20:34 51°19.315 2°55.856 68.5 12.2 66 10
2006-12-21 08:20:39 51°19.322 2°55.88 68.7 12.2 66 10.1
2006-12-21 08:20:44 51°19.329 2°55.905 69 12.2 66 10
2006-12-21 08:20:49 51°19.336 2°55.93 68.8 12.2 65 10
2006-12-21 08:20:54 51°19.343 2°55.954 68.3 12.2 65 10
2006-12-21 08:20:58 51°19.348 2°55.974 68.3 12.1 66 9.9
2006-12-21 08:21:04 51°19.357 2°56.003 68.7 12.2 65 10
2006-12-21 08:21:09 51°19.364 2°56.028 68.4 12.2 65 9.9
2006-12-21 08:21:14 51°19.371 2°56.052 68.4 12.2 65 9.9
2006-12-21 08:21:19 51°19.378 2°56.077 68.2 12.3 65 9.9
2006-12-21 08:21:24 51°19.385 2°56.101 68.2 12.2 65 9.9
2006-12-21 08:21:29 51°19.392 2°56.126 68.3 12.2 66 9.9
2006-12-21 08:21:34 51°19.399 2°56.151 68.7 12.3 66 9.9
2006-12-21 08:21:39 51°19.406 2°56.175 68.8 12.3 66 9.9
2006-12-21 08:21:44 51°19.413 2°56.2 68.5 12.2 66 9.9
2006-12-21 08:21:49 51°19.42 2°56.225 68.6 12.2 65 9.9
2006-12-21 08:21:54 51°19.427 2°56.249 68.5 12.2 66 9.9
2006-12-21 08:21:59 51°19.434 2°56.274 68.6 12.3 65 9.9
2006-12-21 08:22:04 51°19.441 2°56.298 68.2 12.2 65 9.9
2006-12-21 08:22:09 51°19.448 2°56.323 68.5 12.3 66 9.9
2006-12-21 08:22:14 51°19.456 2°56.348 68.4 12.3 65 9.8
2006-12-21 08:22:19 51°19.463 2°56.373 68.7 12.2 66 9.9
2006-12-21 08:22:24 51°19.469 2°56.397 68.7 12.2 67 10.1
2006-12-21 08:22:29 51°19.476 2°56.422 69.2 12.3 65 9.9
2006-12-21 08:22:34 51°19.483 2°56.447 68.9 12.3 66 9.9
2006-12-21 08:22:39 51°19.49 2°56.472 68.8 12.3 65 9.9
2006-12-21 08:22:44 51°19.497 2°56.497 68.6 12.3 66 10
2006-12-21 08:22:49 51°19.504 2°56.522 68.7 12.4 65 9.9
2006-12-21 08:22:54 51°19.512 2°56.547 68.5 12.4 65 9.9
2006-12-21 08:22:59 51°19.519 2°56.571 68.2 12.3 65 9.9
2006-12-21 08:23:04 51°19.526 2°56.596 68.5 12.3 66 9.9
2006-12-21 08:23:10 51°19.534 2°56.627 68.4 12.4 66 9.9
2006-12-21 08:23:14 51°19.54 2°56.646 68.5 12.3 66 10
2006-12-21 08:23:18 51°19.546 2°56.666 68.6 12.4 66 10
2006-12-21 08:23:24 51°19.554 2°56.696 68.3 12.4 65 9.9
2006-12-21 08:23:29 51°19.562 2°56.721 68.2 12.4 65 9.9
2006-12-21 08:23:34 51°19.569 2°56.746 68 12.4 65 10
2006-12-21 08:23:39 51°19.576 2°56.771 67.8 12.4 65 10
2006-12-21 08:23:44 51°19.583 2°56.796 68 12.4 65 10
2006-12-21 08:23:49 51°19.59 2°56.821 68.2 12.4 66 9.8
2006-12-21 08:23:54 51°19.598 2°56.846 68.1 12.4 65 9.8
2006-12-21 08:23:59 51°19.605 2°56.871 68.4 12.4 66 9.8
2006-12-21 08:24:04 51°19.612 2°56.896 68.8 12.4 66 9.9
2006-12-21 08:24:09 51°19.619 2°56.921 68.7 12.4 66 9.9
2006-12-21 08:24:14 51°19.626 2°56.946 68.9 12.5 65 10
2006-12-21 08:24:19 51°19.633 2°56.971 68.1 12.4 65 9.7
2006-12-21 08:24:25 51°19.642 2°57.001 68.3 12.4 65 9.8
2006-12-21 08:24:29 51°19.648 2°57.021 68.2 12.5 65 9.8
2006-12-21 08:24:34 51°19.655 2°57.046 68 12.4 65 9.9
2006-12-21 08:24:39 51°19.662 2°57.071 68.2 12.5 65 9.8
2006-12-21 08:24:44 51°19.669 2°57.096 68.4 12.6 66 9.8
2006-12-21 08:24:49 51°19.677 2°57.122 68.8 12.5 65 9.8
2006-12-21 08:24:54 51°19.684 2°57.147 68.8 12.5 66 9.9
2006-12-21 08:24:59 51°19.691 2°57.172 68.9 12.5 65 9.9
2006-12-21 08:25:04 51°19.698 2°57.197 68.6 12.5 65 9.8
2006-12-21 08:25:09 51°19.706 2°57.222 68.7 12.5 65 9.8
2006-12-21 08:25:15 51°19.715 2°57.253 68.5 12.6 65 9.8
2006-12-21 08:25:19 51°19.72 2°57.273 68.2 12.6 65 9.9
2006-12-21 08:25:24 51°19.728 2°57.298 68.2 12.6 64 9.8
2006-12-21 08:25:29 51°19.735 2°57.323 67.9 12.5 65 9.7
2006-12-21 08:25:34 51°19.743 2°57.348 68 12.6 65 9.7
2006-12-21 08:25:39 51°19.75 2°57.374 68.2 12.6 64 9.7
2006-12-21 08:25:45 51°19.759 2°57.404 68 12.6 65 9.8
2006-12-21 08:25:50 51°19.767 2°57.429 68 12.6 65 9.8
2006-12-21 08:25:55 51°19.774 2°57.454 68.1 12.6 65 9.8
2006-12-21 08:25:59 51°19.78 2°57.474 68.2 12.6 65 9.7
2006-12-21 08:26:05 51°19.789 2°57.505 68.2 12.6 64 9.7
2006-12-21 08:26:10 51°19.797 2°57.53 68.1 12.6 65 9.7
2006-12-21 08:26:15 51°19.804 2°57.555 68 12.7 65 9.7
2006-12-21 08:26:19 51°19.81 2°57.576 68.2 12.6 64 9.7
2006-12-21 08:26:25 51°19.819 2°57.606 68.1 12.6 66 9.7
2006-12-21 08:26:30 51°19.827 2°57.631 68.2 12.6 64 9.8
2006-12-21 08:26:34 51°19.833 2°57.651 67.9 12.6 64 9.7
2006-12-21 08:26:39 51°19.84 2°57.676 67.7 12.5 64 9.7
2006-12-21 08:26:45 51°19.849 2°57.707 67.7 12.6 65 9.7
2006-12-21 08:26:49 51°19.855 2°57.727 67.8 12.6 64 9.8
2006-12-21 08:26:54 51°19.863 2°57.752 67.7 12.6 65 9.7
2006-12-21 08:26:59 51°19.87 2°57.777 67.9 12.6 65 9.6
2006-12-21 08:27:05 51°19.879 2°57.807 67.8 12.6 64 9.7
2006-12-21 08:27:10 51°19.887 2°57.832 67.6 12.5 65 9.6
2006-12-21 08:27:15 51°19.894 2°57.858 68 12.5 65 9.7
2006-12-21 08:27:19 51°19.9 2°57.878 68.1 12.5 66 9.7
2006-12-21 08:27:25 51°19.908 2°57.908 68.2 12.5 65 9.6
2006-12-21 08:27:30 51°19.916 2°57.933 68.3 12.6 66 9.7
2006-12-21 08:27:35 51°19.923 2°57.959 68.5 12.5 65 9.7
2006-12-21 08:27:39 51°19.929 2°57.979 68.4 12.5 65 9.6
2006-12-21 08:27:45 51°19.938 2°58.009 68.1 12.6 64 9.7
2006-12-21 08:27:50 51°19.945 2°58.034 67.5 12.6 65 9.7
2006-12-21 08:27:55 51°19.953 2°58.059 67.3 12.6 63 9.7
2006-12-21 08:27:59 51°19.959 2°58.079 67 12.6 64 9.7
2006-12-21 08:28:05 51°19.968 2°58.109 67.3 12.6 64 9.7
2006-12-21 08:28:10 51°19.976 2°58.134 67.6 12.6 65 9.6
2006-12-21 08:28:15 51°19.983 2°58.16 68.2 12.6 65 9.6
2006-12-21 08:28:19 51°19.989 2°58.18 68.3 12.6 65 9.7
2006-12-21 08:28:25 51°19.998 2°58.212 68.6 12.6 66 9.7
2006-12-21 08:28:30 51°20.005 2°58.238 68.8 12.6 66 9.7
2006-12-21 08:28:35 51°20.012 2°58.263 68.9 12.6 65 9.6
2006-12-21 08:28:39 51°20.018 2°58.284 68.7 12.7 65 9.6
2006-12-21 08:28:45 51°20.027 2°58.314 68.2 12.6 65 9.6
2006-12-21 08:28:50 51°20.035 2°58.339 68.1 12.6 64 9.7
2006-12-21 08:28:55 51°20.043 2°58.364 68 12.6 64 9.7
2006-12-21 08:28:59 51°20.049 2°58.384 67.6 12.6 64 9.7
2006-12-21 08:29:05 51°20.057 2°58.415 67.4 12.6 65 9.7
2006-12-21 08:29:09 51°20.064 2°58.435 68.2 12.6 64 9.6
2006-12-21 08:29:15 51°20.072 2°58.465 68.1 12.7 65 9.6
2006-12-21 08:29:19 51°20.079 2°58.486 68.2 12.6 65 9.6
2006-12-21 08:29:25 51°20.087 2°58.516 68.6 12.6 66 9.7
2006-12-21 08:29:30 51°20.094 2°58.542 68.8 12.7 66 9.6
2006-12-21 08:29:35 51°20.101 2°58.567 68.9 12.7 66 9.6
2006-12-21 08:29:39 51°20.107 2°58.587 68.7 12.6 65 9.6
2006-12-21 08:29:45 51°20.116 2°58.617 68.4 12.6 65 9.6
2006-12-21 08:29:50 51°20.124 2°58.643 68.2 12.6 64 9.6
2006-12-21 08:29:55 51°20.131 2°58.668 68.2 12.7 65 9.6
2006-12-21 08:29:59 51°20.137 2°58.688 67.6 12.7 64 9.6
2006-12-21 08:30:05 51°20.146 2°58.718 67.5 12.5 65 9.7
2006-12-21 08:30:10 51°20.153 2°58.744 68.1 12.6 66 9.7
2006-12-21 08:30:15 51°20.161 2°58.769 68.3 12.7 64 9.7
2006-12-21 08:30:19 51°20.166 2°58.789 67.9 12.6 66 9.7
2006-12-21 08:30:25 51°20.175 2°58.82 68.6 12.6 65 9.7
2006-12-21 08:30:30 51°20.182 2°58.845 68.8 12.6 66 9.7
2006-12-21 08:30:35 51°20.19 2°58.87 68.8 12.6 65 9.7
2006-12-21 08:30:39 51°20.196 2°58.891 68.3 12.6 66 9.6
2006-12-21 08:30:45 51°20.205 2°58.921 68.3 12.6 64 9.6
2006-12-21 08:30:50 51°20.212 2°58.947 67.9 12.6 65 9.7
2006-12-21 08:30:54 51°20.218 2°58.967 68.1 12.6 65 9.7
2006-12-21 08:30:59 51°20.225 2°58.992 68 12.7 65 9.7
2006-12-21 08:31:05 51°20.235 2°59.022 67.9 12.7 64 9.7
2006-12-21 08:31:10 51°20.242 2°59.048 67.5 12.7 65 9.6
2006-12-21 08:31:15 51°20.25 2°59.073 67.8 12.7 65 9.7
2006-12-21 08:31:19 51°20.255 2°59.094 68.2 12.7 66 9.8
2006-12-21 08:31:25 51°20.264 2°59.124 68.3 12.7 65 9.6
2006-12-21 08:31:30 51°20.272 2°59.15 68.2 12.7 65 9.7
2006-12-21 08:31:35 51°20.279 2°59.175 67.9 12.7 65 9.6
2006-12-21 08:31:39 51°20.285 2°59.195 68.1 12.7 64 9.7
2006-12-21 08:31:45 51°20.294 2°59.226 68 12.8 65 9.7
2006-12-21 08:31:50 51°20.302 2°59.252 67.8 12.8 65 9.8
2006-12-21 08:31:55 51°20.309 2°59.277 68.1 12.7 65 9.7
2006-12-21 08:31:59 51°20.315 2°59.297 68.2 12.7 65 9.6
2006-12-21 08:32:05 51°20.324 2°59.328 68.2 12.8 65 9.7
2006-12-21 08:32:10 51°20.331 2°59.354 68.2 12.8 65 9.7
2006-12-21 08:32:14 51°20.338 2°59.374 67.7 12.8 65 9.6
2006-12-21 08:32:19 51°20.345 2°59.4 67.9 12.8 66 9.7
2006-12-21 08:32:25 51°20.354 2°59.43 68.2 12.8 65 9.7
2006-12-21 08:32:30 51°20.362 2°59.456 68.1 12.7 65 9.7
2006-12-21 08:32:34 51°20.368 2°59.476 67.9 12.7 65 9.6
2006-12-21 08:32:39 51°20.375 2°59.502 68.1 12.7 66 9.6
2006-12-21 08:32:45 51°20.384 2°59.532 68.2 12.7 65 9.6
2006-12-21 08:32:50 51°20.392 2°59.558 68.2 12.7 65 9.6
2006-12-21 08:32:54 51°20.397 2°59.578 68.2 12.7 66 9.6
2006-12-21 08:32:59 51°20.404 2°59.604 68.8 12.7 65 9.6
2006-12-21 08:33:05 51°20.413 2°59.634 68.8 12.7 66 9.6
2006-12-21 08:33:10 51°20.421 2°59.66 68.8 12.7 65 9.6
2006-12-21 08:33:14 51°20.427 2°59.68 68.6 12.8 65 9.7
2006-12-21 08:33:19 51°20.434 2°59.706 68.1 12.7 64 9.6
2006-12-21 08:33:25 51°20.443 2°59.736 67.9 12.7 65 9.7
2006-12-21 08:33:30 51°20.451 2°59.762 68.2 12.8 65 9.7
2006-12-21 08:33:34 51°20.456 2°59.782 68 12.7 65 9.7
2006-12-21 08:33:39 51°20.464 2°59.807 68.3 12.6 65 9.6
2006-12-21 08:33:45 51°20.473 2°59.838 68.4 12.7 65 9.6
2006-12-21 08:33:50 51°20.48 2°59.864 68.3 12.8 65 9.7
2006-12-21 08:33:54 51°20.486 2°59.884 68.2 12.7 65 9.7
2006-12-21 08:33:59 51°20.493 2°59.909 68.2 12.7 65 9.8
2006-12-21 08:34:05 51°20.503 2°59.94 68.4 12.8 65 9.8
2006-12-21 08:34:10 51°20.51 2°59.966 68 12.7 65 9.7
2006-12-21 08:34:14 51°20.516 2°59.986 68.2 12.7 64 9.6
2006-12-21 08:34:19 51°20.524 3°0.011 68.2 12.7 65 9.7
2006-12-21 08:34:25 51°20.533 3°0.042 67.9 12.7 65 9.7
2006-12-21 08:34:30 51°20.541 3°0.067 67.9 12.6 64 9.7
2006-12-21 08:34:34 51°20.547 3°0.087 67.6 12.7 65 9.7
2006-12-21 08:34:39 51°20.554 3°0.112 68.1 12.7 65 9.7
2006-12-21 08:34:45 51°20.563 3°0.143 68.2 12.8 65 9.7
2006-12-21 08:34:50 51°20.571 3°0.168 68.1 12.7 65 9.7
2006-12-21 08:34:54 51°20.577 3°0.189 68.2 12.6 64 9.6
2006-12-21 08:34:59 51°20.584 3°0.214 68.5 12.7 65 9.7
2006-12-21 08:35:04 51°20.591 3°0.24 68.7 12.7 66 9.7
2006-12-21 08:35:10 51°20.601 3°0.27 69 12.7 65 9.7
2006-12-21 08:35:14 51°20.606 3°0.291 68.6 12.7 66 9.7
2006-12-21 08:35:19 51°20.613 3°0.317 69 12.7 66 9.7
2006-12-21 08:35:25 51°20.622 3°0.348 69.2 12.8 65 9.7
2006-12-21 08:35:30 51°20.63 3°0.373 68.8 12.8 65 9.7
2006-12-21 08:35:34 51°20.636 3°0.393 68.5 12.7 65 9.7
2006-12-21 08:35:39 51°20.643 3°0.419 68.2 12.7 65 9.7
2006-12-21 08:35:45 51°20.652 3°0.449 68.2 12.7 65 9.7
2006-12-21 08:35:50 51°20.66 3°0.475 68.2 12.8 65 9.7
2006-12-21 08:35:54 51°20.666 3°0.495 68.3 12.7 65 9.7
2006-12-21 08:35:59 51°20.673 3°0.521 68.8 12.8 65 9.8
2006-12-21 08:36:05 51°20.682 3°0.552 68.7 12.8 65 9.7
2006-12-21 08:36:10 51°20.69 3°0.577 68.6 12.7 65 9.7
2006-12-21 08:36:14 51°20.695 3°0.598 68.7 12.7 66 9.7
2006-12-21 08:36:19 51°20.703 3°0.623 68.6 12.8 64 9.8
2006-12-21 08:36:25 51°20.712 3°0.653 68 12.7 65 9.8
2006-12-21 08:36:30 51°20.72 3°0.679 67.7 12.7 64 9.7
2006-12-21 08:36:34 51°20.726 3°0.699 68 12.7 65 9.8
2006-12-21 08:36:39 51°20.733 3°0.726 68.6 12.8 66 9.7
2006-12-21 08:36:45 51°20.742 3°0.756 69 12.8 65 9.8
2006-12-21 08:36:50 51°20.749 3°0.782 68.9 12.7 66 9.8
2006-12-21 08:36:55 51°20.757 3°0.807 68.7 12.7 64 9.7
2006-12-21 08:36:59 51°20.762 3°0.828 68.6 12.7 66 9.8
2006-12-21 08:37:05 51°20.772 3°0.858 68.6 12.7 64 9.7
2006-12-21 08:37:10 51°20.779 3°0.884 68.2 12.7 65 9.7
2006-12-21 08:37:14 51°20.785 3°0.904 68 12.7 64 9.7
2006-12-21 08:37:19 51°20.793 3°0.93 68.1 12.7 65 9.7
2006-12-21 08:37:25 51°20.801 3°0.96 68.4 12.7 66 9.8
2006-12-21 08:37:30 51°20.808 3°0.986 69 12.7 67 9.7
2006-12-21 08:37:34 51°20.814 3°1.007 69.7 12.8 67 9.7
2006-12-21 08:37:39 51°20.82 3°1.033 70.4 12.7 68 9.7
2006-12-21 08:37:45 51°20.828 3°1.065 71.1 12.7 70 9.8
2006-12-21 08:37:50 51°20.834 3°1.091 72 12.8 69 9.8
2006-12-21 08:37:54 51°20.839 3°1.113 72.4 12.8 71 9.8
2006-12-21 08:37:59 51°20.845 3°1.139 72.8 12.8 69 9.8
2006-12-21 08:38:05 51°20.852 3°1.171 72.5 12.8 70 9.8
2006-12-21 08:38:10 51°20.859 3°1.197 72.5 12.8 68 9.8
2006-12-21 08:38:14 51°20.864 3°1.219 72.3 12.8 70 9.8
2006-12-21 08:38:19 51°20.87 3°1.245 72.7 12.8 69 9.7
2006-12-21 08:38:25 51°20.877 3°1.277 72.5 12.8 70 9.8
2006-12-21 08:38:30 51°20.883 3°1.303 72.7 12.7 70 9.8
2006-12-21 08:38:34 51°20.888 3°1.324 73.3 12.6 71 9.8
2006-12-21 08:38:39 51°20.894 3°1.351 73.1 12.6 70 9.8
2006-12-21 08:38:45 51°20.901 3°1.383 73.3 12.7 71 9.8
2006-12-21 08:38:50 51°20.907 3°1.409 73.2 12.7 69 9.8
2006-12-21 08:38:55 51°20.913 3°1.435 72.5 12.6 71 9.7
2006-12-21 08:38:59 51°20.919 3°1.456 73 12.6 68 9.7
2006-12-21 08:39:05 51°20.926 3°1.487 72.6 12.7 69 9.7
2006-12-21 08:39:10 51°20.932 3°1.514 72.2 12.6 69 9.9
2006-12-21 08:39:14 51°20.937 3°1.535 72.1 12.7 69 9.8
2006-12-21 08:39:19 51°20.943 3°1.561 72.5 12.7 69 9.8
2006-12-21 08:39:25 51°20.95 3°1.592 72.3 12.5 70 9.8
2006-12-21 08:39:30 51°20.956 3°1.619 73.2 12.6 71 9.8
2006-12-21 08:39:34 51°20.961 3°1.639 73.3 12.6 70 9.9
2006-12-21 08:39:39 51°20.967 3°1.666 73.4 12.6 70 9.8
2006-12-21 08:39:45 51°20.974 3°1.697 73.4 12.6 71 9.9
2006-12-21 08:39:50 51°20.98 3°1.723 73.5 12.6 70 9.9
2006-12-21 08:39:55 51°20.986 3°1.749 73.2 12.6 70 9.9
2006-12-21 08:39:59 51°20.991 3°1.77 72.8 12.6 69 9.8
2006-12-21 08:40:05 51°20.998 3°1.801 72.3 12.5 69 9.7
2006-12-21 08:40:10 51°21.004 3°1.827 72.2 12.6 69 9.8
2006-12-21 08:40:14 51°21.01 3°1.848 71.8 12.6 69 9.8
2006-12-21 08:40:19 51°21.016 3°1.874 71.7 12.5 69 9.9
2006-12-21 08:40:25 51°21.023 3°1.905 72.1 12.6 70 9.8
2006-12-21 08:40:30 51°21.029 3°1.931 72.5 12.6 69 9.9
2006-12-21 08:40:34 51°21.034 3°1.952 71.8 12.5 70 9.9
2006-12-21 08:40:39 51°21.04 3°1.978 72.4 12.6 69 9.8
2006-12-21 08:40:45 51°21.048 3°2.01 72.2 12.6 70 9.9
2006-12-21 08:40:50 51°21.053 3°2.036 72.4 12.6 70 9.9
2006-12-21 08:40:54 51°21.058 3°2.057 72.7 12.6 70 9.9
2006-12-21 08:40:59 51°21.064 3°2.083 72.7 12.5 71 9.8
2006-12-21 08:41:05 51°21.071 3°2.114 73.1 12.6 69 9.8
2006-12-21 08:41:10 51°21.077 3°2.14 72.5 12.6 70 9.9
2006-12-21 08:41:14 51°21.082 3°2.161 72.2 12.6 69 9.9
2006-12-21 08:41:19 51°21.088 3°2.187 72.3 12.6 70 9.9
2006-12-21 08:41:25 51°21.096 3°2.218 72.5 12.6 69 9.8
2006-12-21 08:41:30 51°21.102 3°2.245 72.2 12.6 70 10
2006-12-21 08:41:34 51°21.107 3°2.265 72.5 12.6 70 10
2006-12-21 08:41:39 51°21.112 3°2.292 72.7 12.7 70 9.9
2006-12-21 08:41:45 51°21.12 3°2.323 72.7 12.7 70 10
2006-12-21 08:41:50 51°21.126 3°2.349 72.2 12.5 70 9.9
2006-12-21 08:41:54 51°21.131 3°2.37 72.3 12.7 69 10
2006-12-21 08:41:59 51°21.138 3°2.396 71.8 12.7 68 9.9
2006-12-21 08:42:05 51°21.145 3°2.428 71.7 12.7 70 9.9
2006-12-21 08:42:10 51°21.151 3°2.454 72 12.7 69 9.9
2006-12-21 08:42:14 51°21.156 3°2.475 71.8 12.6 69 9.9
2006-12-21 08:42:19 51°21.162 3°2.501 71.8 12.6 70 10
2006-12-21 08:42:25 51°21.17 3°2.533 72.3 12.7 69 9.9
2006-12-21 08:42:30 51°21.176 3°2.559 72.5 12.7 70 10
2006-12-21 08:42:34 51°21.181 3°2.58 72 12.7 70 9.9
2006-12-21 08:42:39 51°21.187 3°2.607 72 12.6 69 10
2006-12-21 08:42:45 51°21.194 3°2.638 71.8 12.6 70 10
2006-12-21 08:42:50 51°21.201 3°2.664 72 12.7 69 10
2006-12-21 08:42:54 51°21.206 3°2.685 71.8 12.6 69 10
2006-12-21 08:42:59 51°21.212 3°2.711 71.8 12.6 69 9.9
2006-12-21 08:43:04 51°21.218 3°2.737 72.2 12.7 69 9.9
2006-12-21 08:43:10 51°21.225 3°2.769 71.9 12.7 70 9.9
2006-12-21 08:43:14 51°21.231 3°2.79 72.1 12.7 69 9.9
2006-12-21 08:43:19 51°21.236 3°2.816 72.3 12.6 69 10
2006-12-21 08:43:25 51°21.244 3°2.848 72.3 12.7 69 10
2006-12-21 08:43:30 51°21.25 3°2.874 71.8 12.7 69 10
2006-12-21 08:43:34 51°21.255 3°2.895 71.8 12.7 69 10
2006-12-21 08:43:39 51°21.261 3°2.921 71.8 12.6 69 10
2006-12-21 08:43:45 51°21.269 3°2.953 72.4 12.7 70 10
2006-12-21 08:43:50 51°21.275 3°2.979 72.4 12.8 69 10
2006-12-21 08:43:54 51°21.28 3°3 72 12.7 70 10
2006-12-21 08:43:59 51°21.286 3°3.026 72.2 12.7 69 9.9
2006-12-21 08:44:05 51°21.294 3°3.058 72.2 12.7 69 10.1
2006-12-21 08:44:10 51°21.3 3°3.084 71.9 12.7 70 10
2006-12-21 08:44:14 51°21.305 3°3.105 72.2 12.7 69 10
2006-12-21 08:44:19 51°21.311 3°3.132 72.1 12.7 69 10
2006-12-21 08:44:25 51°21.318 3°3.163 72 12.7 69 10
2006-12-21 08:44:30 51°21.324 3°3.19 72.1 12.8 69 10.1
2006-12-21 08:44:34 51°21.329 3°3.211 72.3 12.8 70 10.1
2006-12-21 08:44:39 51°21.335 3°3.237 72.4 12.8 69 10.1
2006-12-21 08:44:45 51°21.343 3°3.269 72.2 12.7 70 10.1
2006-12-21 08:44:50 51°21.349 3°3.296 72.6 12.7 70 10.2
2006-12-21 08:44:54 51°21.354 3°3.317 72.2 12.7 70 10.1
2006-12-21 08:44:59 51°21.36 3°3.343 72.6 12.8 69 10.2
2006-12-21 08:45:05 51°21.367 3°3.375 71.8 12.7 70 10.2
2006-12-21 08:45:10 51°21.374 3°3.401 72.2 12.7 70 10.2
2006-12-21 08:45:14 51°21.379 3°3.422 71.7 12.7 69 10.2
2006-12-21 08:45:19 51°21.385 3°3.449 72 12.8 70 10.2
2006-12-21 08:45:25 51°21.392 3°3.481 71.9 12.8 69 10.2
2006-12-21 08:45:30 51°21.399 3°3.507 72 12.7 69 10.2
2006-12-21 08:45:34 51°21.403 3°3.528 72 12.7 69 10.2
2006-12-21 08:45:39 51°21.409 3°3.555 72.1 12.7 70 10.2
2006-12-21 08:45:45 51°21.417 3°3.587 72.3 12.8 70 10.2
2006-12-21 08:45:50 51°21.423 3°3.613 72.5 12.8 69 10.2
2006-12-21 08:45:54 51°21.428 3°3.634 72.6 12.7 71 10.3
2006-12-21 08:45:59 51°21.434 3°3.661 72.9 12.8 70 10.2
2006-12-21 08:46:05 51°21.441 3°3.692 72.5 12.8 69 10.3
2006-12-21 08:46:10 51°21.447 3°3.719 72.3 12.7 71 10.2
2006-12-21 08:46:14 51°21.452 3°3.74 72.7 12.8 70 10.3
2006-12-21 08:46:19 51°21.458 3°3.767 72.4 12.8 69 10.3
2006-12-21 08:46:25 51°21.465 3°3.799 72.3 12.7 70 10.3
2006-12-21 08:46:30 51°21.472 3°3.826 72.2 12.8 70 10.3
2006-12-21 08:46:34 51°21.476 3°3.847 72.3 12.9 70 10.3
2006-12-21 08:46:39 51°21.482 3°3.874 73 12.8 71 10.3
2006-12-21 08:46:45 51°21.489 3°3.906 73.5 12.9 71 10.4
2006-12-21 08:46:50 51°21.494 3°3.934 73.5 12.8 73 10.4
2006-12-21 08:46:54 51°21.499 3°3.955 74.6 12.8 71 10.3
2006-12-21 08:46:59 51°21.504 3°3.982 74.4 12.8 72 10.3
2006-12-21 08:47:05 51°21.511 3°4.014 74.1 12.8 71 10.4
2006-12-21 08:47:10 51°21.516 3°4.041 73.9 12.8 72 10.4
2006-12-21 08:47:14 51°21.521 3°4.063 74.1 12.9 71 10.4
2006-12-21 08:47:19 51°21.527 3°4.09 74.1 12.8 72 10.4
2006-12-21 08:47:25 51°21.533 3°4.122 74.6 12.8 72 10.4
2006-12-21 08:47:30 51°21.538 3°4.149 74.6 12.8 72 10.4
2006-12-21 08:47:34 51°21.543 3°4.171 74.8 12.9 72 10.4
2006-12-21 08:47:39 51°21.548 3°4.198 74.4 12.8 72 10.4
2006-12-21 08:47:45 51°21.555 3°4.23 74.1 12.7 72 10.4
2006-12-21 08:47:49 51°21.559 3°4.251 74.3 12.8 72 10.4
2006-12-21 08:47:54 51°21.565 3°4.278 74.4 12.8 72 10.4
2006-12-21 08:47:59 51°21.57 3°4.306 74.6 12.8 72 10.5
2006-12-21 08:48:05 51°21.577 3°4.338 74.5 12.8 73 10.4
2006-12-21 08:48:10 51°21.582 3°4.365 74.6 12.8 72 10.4
2006-12-21 08:48:14 51°21.586 3°4.386 74.7 12.7 73 10.5
2006-12-21 08:48:19 51°21.592 3°4.413 74.9 12.7 73 10.4
2006-12-21 08:48:25 51°21.598 3°4.446 75.3 12.8 72 10.4
2006-12-21 08:48:30 51°21.603 3°4.473 74.8 12.8 73 10.4
2006-12-21 08:48:34 51°21.608 3°4.495 74.9 12.8 73 10.4
2006-12-21 08:48:39 51°21.613 3°4.522 74.9 12.8 73 10.4
2006-12-21 08:48:45 51°21.618 3°4.555 75.4 12.8 74 10.4
2006-12-21 08:48:50 51°21.623 3°4.582 76.3 12.8 74 10.5
2006-12-21 08:48:54 51°21.627 3°4.604 76.6 12.8 76 10.4
2006-12-21 08:48:59 51°21.631 3°4.631 77.5 12.8 75 10.5
2006-12-21 08:49:05 51°21.637 3°4.664 77.6 12.8 75 10.4
2006-12-21 08:49:10 51°21.641 3°4.692 77.8 12.8 75 10.5
2006-12-21 08:49:14 51°21.644 3°4.714 77.6 12.9 77 10.5
2006-12-21 08:49:19 51°21.649 3°4.741 77.6 12.9 73 10.5
2006-12-21 08:49:25 51°21.654 3°4.774 77.4 12.8 77 10.5
2006-12-21 08:49:30 51°21.659 3°4.801 77.1 12.7 74 10.6
2006-12-21 08:49:34 51°21.663 3°4.823 76.7 12.8 74 10.6
2006-12-21 08:49:39 51°21.668 3°4.851 76.2 12.9 74 10.5
2006-12-21 08:49:45 51°21.674 3°4.883 75.9 12.8 73 10.6
2006-12-21 08:49:50 51°21.679 3°4.911 75.9 12.8 74 10.6
2006-12-21 08:49:54 51°21.683 3°4.932 76.5 12.8 74 10.5
2006-12-21 08:49:59 51°21.687 3°4.96 76.3 12.8 74 10.6
2006-12-21 08:50:05 51°21.693 3°4.993 76.3 12.8 74 10.6
2006-12-21 08:50:10 51°21.698 3°5.02 76.5 12.8 75 10.6
2006-12-21 08:50:14 51°21.702 3°5.042 76.5 12.9 74 10.7
2006-12-21 08:50:19 51°21.706 3°5.07 76.4 12.8 75 10.6
2006-12-21 08:50:25 51°21.711 3°5.103 77.3 12.8 75 10.5
2006-12-21 08:50:30 51°21.716 3°5.13 77.3 12.8 76 10.6
2006-12-21 08:50:34 51°21.719 3°5.152 77.5 12.8 76 10.6
2006-12-21 08:50:39 51°21.724 3°5.179 77.8 12.8 75 10.6
2006-12-21 08:50:45 51°21.729 3°5.212 77.1 12.8 76 10.6
2006-12-21 08:50:50 51°21.734 3°5.239 77.4 12.8 75 10.7
2006-12-21 08:50:54 51°21.737 3°5.261 77.2 12.8 76 10.7
2006-12-21 08:50:59 51°21.742 3°5.289 77.3 12.7 74 10.7
2006-12-21 08:51:05 51°21.747 3°5.322 77.4 12.7 77 10.6
2006-12-21 08:51:10 51°21.752 3°5.349 77.7 12.8 74 10.7
2006-12-21 08:51:14 51°21.755 3°5.37 77.4 12.7 77 10.7
2006-12-21 08:51:19 51°21.759 3°5.398 77.7 12.7 75 10.7
2006-12-21 08:51:25 51°21.765 3°5.431 77.9 12.7 76 10.7
2006-12-21 08:51:30 51°21.769 3°5.458 77.8 12.7 76 10.7
2006-12-21 08:51:34 51°21.772 3°5.48 78.4 12.8 77 10.6
2006-12-21 08:51:39 51°21.776 3°5.508 78.2 12.8 76 10.6
2006-12-21 08:51:45 51°21.78 3°5.541 78.9 12.6 79 10.7
2006-12-21 08:51:50 51°21.784 3°5.568 79.9 12.7 77 10.5
2006-12-21 08:51:54 51°21.787 3°5.591 79.7 12.8 78 10.6
2006-12-21 08:51:59 51°21.791 3°5.618 79.1 12.7 77 10.7
2006-12-21 08:52:05 51°21.795 3°5.651 79.5 12.7 79 10.6
2006-12-21 08:52:10 51°21.799 3°5.679 79.8 12.7 78 10.6
2006-12-21 08:52:14 51°21.801 3°5.701 79.8 12.7 79 10.6
2006-12-21 08:52:19 51°21.805 3°5.729 79.9 12.8 79 10.6
2006-12-21 08:52:25 51°21.81 3°5.762 79.5 12.8 76 10.7
2006-12-21 08:52:30 51°21.814 3°5.789 79 12.7 78 10.7
2006-12-21 08:52:34 51°21.817 3°5.811 79.1 12.8 77 10.7
2006-12-21 08:52:39 51°21.821 3°5.839 79.1 12.7 77 10.7
2006-12-21 08:52:45 51°21.825 3°5.872 78.8 12.7 79 10.7
2006-12-21 08:52:50 51°21.829 3°5.899 79.8 12.7 77 10.7
2006-12-21 08:52:54 51°21.832 3°5.921 79.7 12.7 79 10.7
2006-12-21 08:52:59 51°21.836 3°5.949 80 12.7 77 10.8
2006-12-21 08:53:05 51°21.84 3°5.982 79.6 12.8 79 10.7
2006-12-21 08:53:10 51°21.844 3°6.009 79.4 12.7 76 10.7
2006-12-21 08:53:14 51°21.847 3°6.032 79.7 12.7 79 10.7
2006-12-21 08:53:19 51°21.851 3°6.059 79.7 12.7 77 10.7
2006-12-21 08:53:25 51°21.856 3°6.092 79.3 12.7 77 10.8
2006-12-21 08:53:30 51°21.86 3°6.119 79.5 12.7 78 10.7
2006-12-21 08:53:34 51°21.863 3°6.141 79.5 12.7 76 10.7
2006-12-21 08:53:39 51°21.867 3°6.169 79 12.7 78 10.8
2006-12-21 08:53:45 51°21.871 3°6.202 79.5 12.7 77 10.8
2006-12-21 08:53:50 51°21.875 3°6.229 79.8 12.7 78 10.7
2006-12-21 08:53:54 51°21.878 3°6.251 79.6 12.7 77 10.7
2006-12-21 08:53:59 51°21.882 3°6.279 79.5 12.7 77 10.8
2006-12-21 08:54:05 51°21.887 3°6.312 79.1 12.7 77 10.7
2006-12-21 08:54:10 51°21.891 3°6.339 79.6 12.8 78 10.8
2006-12-21 08:54:14 51°21.894 3°6.361 79.5 12.7 77 10.8
2006-12-21 08:54:19 51°21.897 3°6.389 80.1 12.7 79 10.7
2006-12-21 08:54:25 51°21.901 3°6.422 80.5 12.7 78 10.8
2006-12-21 08:54:30 51°21.905 3°6.45 80.4 12.7 79 10.8
2006-12-21 08:54:34 51°21.908 3°6.471 80.7 12.7 78 10.9
2006-12-21 08:54:39 51°21.911 3°6.499 80.3 12.7 79 10.8
2006-12-21 08:54:45 51°21.916 3°6.532 80.4 12.7 77 10.9
2006-12-21 08:54:50 51°21.919 3°6.56 80.2 12.7 79 10.8
2006-12-21 08:54:54 51°21.922 3°6.581 80.2 12.7 77 10.9
2006-12-21 08:54:59 51°21.925 3°6.609 80 12.8 80 10.9
2006-12-21 08:55:05 51°21.93 3°6.642 80.3 12.8 77 10.9
2006-12-21 08:55:10 51°21.933 3°6.67 80.5 12.7 80 10.9
2006-12-21 08:55:14 51°21.936 3°6.692 80.7 12.7 79 10.9
2006-12-21 08:55:19 51°21.939 3°6.72 80.8 12.8 78 10.9
2006-12-21 08:55:25 51°21.944 3°6.753 80.5 12.8 78 10.9
2006-12-21 08:55:30 51°21.947 3°6.781 80.3 12.8 78 11
2006-12-21 08:55:34 51°21.95 3°6.803 80.3 12.8 78 11
2006-12-21 08:55:39 51°21.954 3°6.83 80.5 12.8 79 11
2006-12-21 08:55:45 51°21.958 3°6.864 80.9 12.8 79 11
2006-12-21 08:55:50 51°21.961 3°6.891 80.9 12.8 79 11
2006-12-21 08:55:54 51°21.964 3°6.913 80.7 12.7 78 11.1
2006-12-21 08:55:59 51°21.967 3°6.941 80.5 12.7 80 11
2006-12-21 08:56:05 51°21.972 3°6.974 80.6 12.8 77 11.1
2006-12-21 08:56:10 51°21.975 3°7.002 80 12.7 79 11.1
2006-12-21 08:56:14 51°21.979 3°7.024 80.3 12.8 78 11
2006-12-21 08:56:19 51°21.982 3°7.052 80.5 12.8 79 11.1
2006-12-21 08:56:25 51°21.986 3°7.085 80.6 12.8 79 11.2
2006-12-21 08:56:30 51°21.989 3°7.113 81.1 12.8 80 11.1
2006-12-21 08:56:34 51°21.992 3°7.136 81.2 12.9 79 11.1
2006-12-21 08:56:39 51°21.995 3°7.164 81.2 12.9 80 11.2
2006-12-21 08:56:45 51°21.999 3°7.198 81.6 12.9 79 11.1
2006-12-21 08:56:50 51°22.002 3°7.226 81 12.8 80 11.2
2006-12-21 08:56:54 51°22.005 3°7.248 81.5 12.9 79 11.2
2006-12-21 08:56:59 51°22.008 3°7.276 80.9 12.9 79 11.1
2006-12-21 08:57:05 51°22.013 3°7.31 80.9 12.9 79 11.2
2006-12-21 08:57:10 51°22.016 3°7.338 80.9 12.9 80 11.2
2006-12-21 08:57:14 51°22.018 3°7.361 81.2 13 79 11.2
2006-12-21 08:57:19 51°22.021 3°7.389 81.2 12.9 80 11.3
2006-12-21 08:57:25 51°22.026 3°7.423 81.2 12.9 79 11.2
2006-12-21 08:57:30 51°22.029 3°7.451 81.2 13 79 11.3
2006-12-21 08:57:34 51°22.032 3°7.473 81.2 13 79 11.2
2006-12-21 08:57:39 51°22.035 3°7.502 80.7 13 80 11.2
2006-12-21 08:57:45 51°22.039 3°7.536 81.3 13 79 11.2
2006-12-21 08:57:50 51°22.043 3°7.564 81 13 79 11.2
2006-12-21 08:57:54 51°22.045 3°7.587 81.1 13 79 11.3
2006-12-21 08:57:59 51°22.048 3°7.615 81.2 13 80 11.2
2006-12-21 08:58:05 51°22.053 3°7.649 81.4 13.1 79 11.2
2006-12-21 08:58:10 51°22.056 3°7.678 81.2 13 80 11.2
2006-12-21 08:58:14 51°22.058 3°7.7 81.7 13 80 11.2
2006-12-21 08:58:19 51°22.061 3°7.729 82 13 80 11.2
2006-12-21 08:58:25 51°22.065 3°7.763 82.1 13.1 80 11.2
2006-12-21 08:58:29 51°22.068 3°7.786 81.9 13.1 79 11.2
2006-12-21 08:58:34 51°22.071 3°7.815 81.8 13.1 80 11.2
2006-12-21 08:58:39 51°22.074 3°7.843 81.5 13 79 11.2
2006-12-21 08:58:45 51°22.078 3°7.877 81.5 13 80 11.2
2006-12-21 08:58:50 51°22.082 3°7.905 81.7 13.1 79 11.2
2006-12-21 08:58:54 51°22.084 3°7.928 81.3 13.1 80 11.2
2006-12-21 08:58:59 51°22.088 3°7.957 81.4 13.1 79 11.2
2006-12-21 08:59:05 51°22.092 3°7.991 81.2 13 79 11.2
2006-12-21 08:59:10 51°22.095 3°8.019 81.6 13 80 11.2
2006-12-21 08:59:14 51°22.097 3°8.042 81.7 13.1 80 11.3
2006-12-21 08:59:19 51°22.101 3°8.07 82 13.1 79 11.2
2006-12-21 08:59:25 51°22.104 3°8.105 81.6 13.1 80 11.3
2006-12-21 08:59:30 51°22.108 3°8.133 81.8 13.1 79 11.3
2006-12-21 08:59:34 51°22.11 3°8.156 81.2 12.9 79 11.2
2006-12-21 08:59:39 51°22.113 3°8.184 82 13.1 80 11.3
2006-12-21 08:59:45 51°22.118 3°8.219 81.6 13.2 79 11.3
2006-12-21 08:59:50 51°22.121 3°8.247 81.3 13.2 80 11.4
2006-12-21 08:59:54 51°22.124 3°8.27 81.4 13.1 79 11.4
2006-12-21 08:59:59 51°22.127 3°8.298 80.9 13 79 11.3
2006-12-21 09:00:05 51°22.131 3°8.333 81.2 13 80 11.3
2006-12-21 09:00:09 51°22.133 3°8.355 81.7 13.1 80 11.4
2006-12-21 09:00:14 51°22.137 3°8.384 82 13.1 79 11.4
2006-12-21 09:00:19 51°22.14 3°8.412 81.5 13.1 79 11.4
2006-12-21 09:00:25 51°22.144 3°8.447 80.9 13.1 79 11.4
2006-12-21 09:00:30 51°22.148 3°8.475 81.2 13.1 80 11.4
2006-12-21 09:00:34 51°22.151 3°8.498 81.2 13.1 78 11.5
2006-12-21 09:00:39 51°22.154 3°8.526 81 13.1 80 11.4
2006-12-21 09:00:45 51°22.158 3°8.561 81.2 13.1 78 11.4
2006-12-21 09:00:50 51°22.162 3°8.589 80.9 13.2 80 11.5
2006-12-21 09:00:54 51°22.165 3°8.612 81.2 13.2 79 11.5